sensor_id;sensor_type;location;lat;lon;timestamp;P1;durP1;ratioP1;P2;durP2;ratioP2
12986;SDS011;58897;51.960;5.582;2022-12-18T00:04:05;29.53;;;12.03;;
12986;SDS011;58897;51.960;5.582;2022-12-18T00:06:34;30.23;;;12.80;;
12986;SDS011;58897;51.960;5.582;2022-12-18T00:09:01;25.17;;;12.50;;
12986;SDS011;58897;51.960;5.582;2022-12-18T00:11:29;25.53;;;12.80;;
12986;SDS011;58897;51.960;5.582;2022-12-18T00:13:57;36.70;;;12.10;;
12986;SDS011;58897;51.960;5.582;2022-12-18T00:16:26;29.20;;;12.93;;
12986;SDS011;58897;51.960;5.582;2022-12-18T00:18:54;27.87;;;11.27;;
12986;SDS011;58897;51.960;5.582;2022-12-18T00:21:22;33.57;;;13.30;;
12986;SDS011;58897;51.960;5.582;2022-12-18T00:23:49;30.97;;;11.67;;
12986;SDS011;58897;51.960;5.582;2022-12-18T00:26:18;32.07;;;13.07;;
12986;SDS011;58897;51.960;5.582;2022-12-18T00:28:47;28.67;;;11.37;;
12986;SDS011;58897;51.960;5.582;2022-12-18T00:31:16;33.97;;;14.07;;
12986;SDS011;58897;51.960;5.582;2022-12-18T00:33:45;34.47;;;13.40;;
12986;SDS011;58897;51.960;5.582;2022-12-18T00:36:18;31.53;;;13.83;;
12986;SDS011;58897;51.960;5.582;2022-12-18T00:38:46;29.73;;;12.40;;
12986;SDS011;58897;51.960;5.582;2022-12-18T00:41:14;34.63;;;13.77;;
12986;SDS011;58897;51.960;5.582;2022-12-18T00:44:05;30.60;;;12.57;;
12986;SDS011;58897;51.960;5.582;2022-12-18T00:46:32;27.03;;;12.43;;
12986;SDS011;58897;51.960;5.582;2022-12-18T00:48:59;27.10;;;11.93;;
12986;SDS011;58897;51.960;5.582;2022-12-18T00:51:26;25.43;;;11.40;;
12986;SDS011;58897;51.960;5.582;2022-12-18T00:53:52;33.03;;;14.60;;
12986;SDS011;58897;51.960;5.582;2022-12-18T00:56:22;34.33;;;13.80;;
12986;SDS011;58897;51.960;5.582;2022-12-18T00:58:50;29.33;;;13.50;;
12986;SDS011;58897;51.960;5.582;2022-12-18T01:01:16;30.03;;;14.00;;
12986;SDS011;58897;51.960;5.582;2022-12-18T01:03:43;27.07;;;12.67;;
12986;SDS011;58897;51.960;5.582;2022-12-18T01:06:11;29.77;;;12.80;;
12986;SDS011;58897;51.960;5.582;2022-12-18T01:08:38;38.63;;;14.00;;
12986;SDS011;58897;51.960;5.582;2022-12-18T01:11:09;31.47;;;14.53;;
12986;SDS011;58897;51.960;5.582;2022-12-18T01:13:38;29.77;;;13.27;;
12986;SDS011;58897;51.960;5.582;2022-12-18T01:16:06;34.90;;;13.13;;
12986;SDS011;58897;51.960;5.582;2022-12-18T01:18:32;27.30;;;12.07;;
12986;SDS011;58897;51.960;5.582;2022-12-18T01:20:59;24.37;;;10.70;;
12986;SDS011;58897;51.960;5.582;2022-12-18T01:23:25;32.40;;;11.13;;
12986;SDS011;58897;51.960;5.582;2022-12-18T01:25:53;32.37;;;13.07;;
12986;SDS011;58897;51.960;5.582;2022-12-18T01:28:19;34.77;;;14.07;;
12986;SDS011;58897;51.960;5.582;2022-12-18T01:30:46;29.60;;;12.13;;
12986;SDS011;58897;51.960;5.582;2022-12-18T01:33:12;26.70;;;11.30;;
12986;SDS011;58897;51.960;5.582;2022-12-18T01:35:42;25.10;;;11.57;;
12986;SDS011;58897;51.960;5.582;2022-12-18T01:38:09;23.77;;;10.00;;
12986;SDS011;58897;51.960;5.582;2022-12-18T01:40:36;21.00;;;9.40;;
12986;SDS011;58897;51.960;5.582;2022-12-18T01:43:02;23.43;;;11.27;;
12986;SDS011;58897;51.960;5.582;2022-12-18T01:45:30;21.90;;;9.87;;
12986;SDS011;58897;51.960;5.582;2022-12-18T01:47:59;29.37;;;12.80;;
12986;SDS011;58897;51.960;5.582;2022-12-18T01:50:33;27.47;;;11.67;;
12986;SDS011;58897;51.960;5.582;2022-12-18T01:53:05;27.33;;;10.83;;
12986;SDS011;58897;51.960;5.582;2022-12-18T01:55:38;23.53;;;9.80;;
12986;SDS011;58897;51.960;5.582;2022-12-18T01:58:19;23.73;;;9.40;;
12986;SDS011;58897;51.960;5.582;2022-12-18T02:00:48;21.17;;;10.07;;
12986;SDS011;58897;51.960;5.582;2022-12-18T02:03:14;29.27;;;11.37;;
12986;SDS011;58897;51.960;5.582;2022-12-18T02:05:59;19.27;;;9.23;;
12986;SDS011;58897;51.960;5.582;2022-12-18T02:08:32;20.57;;;9.63;;
12986;SDS011;58897;51.960;5.582;2022-12-18T02:11:11;24.27;;;10.60;;
12986;SDS011;58897;51.960;5.582;2022-12-18T02:18:51;23.07;;;11.20;;
12986;SDS011;58897;51.960;5.582;2022-12-18T02:24:15;19.67;;;10.20;;
12986;SDS011;58897;51.960;5.582;2022-12-18T02:26:50;26.07;;;10.00;;
12986;SDS011;58897;51.960;5.582;2022-12-18T02:29:24;23.23;;;10.00;;
12986;SDS011;58897;51.960;5.582;2022-12-18T02:31:57;21.77;;;9.83;;
12986;SDS011;58897;51.960;5.582;2022-12-18T02:34:29;21.67;;;9.60;;
12986;SDS011;58897;51.960;5.582;2022-12-18T02:36:59;19.03;;;9.43;;
12986;SDS011;58897;51.960;5.582;2022-12-18T02:39:28;22.27;;;10.53;;
12986;SDS011;58897;51.960;5.582;2022-12-18T02:41:57;21.00;;;8.60;;
12986;SDS011;58897;51.960;5.582;2022-12-18T02:44:24;24.63;;;9.63;;
12986;SDS011;58897;51.960;5.582;2022-12-18T02:46:51;23.17;;;10.13;;
12986;SDS011;58897;51.960;5.582;2022-12-18T02:54:52;17.27;;;9.13;;
12986;SDS011;58897;51.960;5.582;2022-12-18T02:57:33;20.13;;;9.67;;
12986;SDS011;58897;51.960;5.582;2022-12-18T03:00:07;16.17;;;9.10;;
12986;SDS011;58897;51.960;5.582;2022-12-18T03:02:43;19.97;;;9.30;;
12986;SDS011;58897;51.960;5.582;2022-12-18T03:05:17;19.07;;;9.13;;
12986;SDS011;58897;51.960;5.582;2022-12-18T03:07:53;19.87;;;9.10;;
12986;SDS011;58897;51.960;5.582;2022-12-18T03:10:25;18.10;;;7.73;;
12986;SDS011;58897;51.960;5.582;2022-12-18T03:13:02;20.27;;;9.27;;
12986;SDS011;58897;51.960;5.582;2022-12-18T03:21:16;18.83;;;9.97;;
12986;SDS011;58897;51.960;5.582;2022-12-18T03:23:48;18.87;;;8.27;;
12986;SDS011;58897;51.960;5.582;2022-12-18T03:26:18;18.63;;;8.60;;
12986;SDS011;58897;51.960;5.582;2022-12-18T03:28:57;15.30;;;8.30;;
12986;SDS011;58897;51.960;5.582;2022-12-18T03:31:28;17.40;;;9.37;;
12986;SDS011;58897;51.960;5.582;2022-12-18T03:33:58;16.23;;;7.13;;
12986;SDS011;58897;51.960;5.582;2022-12-18T03:36:30;15.93;;;8.67;;
12986;SDS011;58897;51.960;5.582;2022-12-18T03:38:56;15.27;;;8.10;;
12986;SDS011;58897;51.960;5.582;2022-12-18T03:41:26;17.00;;;9.03;;
12986;SDS011;58897;51.960;5.582;2022-12-18T03:49:14;14.97;;;7.93;;
12986;SDS011;58897;51.960;5.582;2022-12-18T03:51:57;17.90;;;7.47;;
12986;SDS011;58897;51.960;5.582;2022-12-18T03:54:29;16.57;;;8.73;;
12986;SDS011;58897;51.960;5.582;2022-12-18T03:57:09;16.67;;;7.63;;
12986;SDS011;58897;51.960;5.582;2022-12-18T03:59:38;10.63;;;5.00;;
12986;SDS011;58897;51.960;5.582;2022-12-18T04:02:06;12.17;;;7.77;;
12986;SDS011;58897;51.960;5.582;2022-12-18T04:04:35;14.40;;;7.70;;
12986;SDS011;58897;51.960;5.582;2022-12-18T04:07:04;16.33;;;8.57;;
12986;SDS011;58897;51.960;5.582;2022-12-18T04:09:32;16.17;;;6.97;;
12986;SDS011;58897;51.960;5.582;2022-12-18T04:12:02;12.63;;;8.53;;
12986;SDS011;58897;51.960;5.582;2022-12-18T04:14:28;13.37;;;8.23;;
12986;SDS011;58897;51.960;5.582;2022-12-18T04:16:55;13.40;;;7.10;;
12986;SDS011;58897;51.960;5.582;2022-12-18T04:19:21;14.83;;;6.87;;
12986;SDS011;58897;51.960;5.582;2022-12-18T04:21:48;13.97;;;8.13;;
12986;SDS011;58897;51.960;5.582;2022-12-18T04:24:14;17.57;;;8.63;;
12986;SDS011;58897;51.960;5.582;2022-12-18T04:26:40;14.23;;;7.77;;
12986;SDS011;58897;51.960;5.582;2022-12-18T04:29:07;14.40;;;7.67;;
12986;SDS011;58897;51.960;5.582;2022-12-18T04:31:33;16.40;;;7.63;;
12986;SDS011;58897;51.960;5.582;2022-12-18T04:34:00;13.47;;;7.27;;
12986;SDS011;58897;51.960;5.582;2022-12-18T04:36:27;12.57;;;6.77;;
12986;SDS011;58897;51.960;5.582;2022-12-18T04:38:53;15.80;;;7.10;;
12986;SDS011;58897;51.960;5.582;2022-12-18T04:41:20;11.73;;;6.20;;
12986;SDS011;58897;51.960;5.582;2022-12-18T04:43:46;14.40;;;7.17;;
12986;SDS011;58897;51.960;5.582;2022-12-18T04:46:13;14.07;;;7.73;;
12986;SDS011;58897;51.960;5.582;2022-12-18T04:48:39;15.43;;;7.67;;
12986;SDS011;58897;51.960;5.582;2022-12-18T04:51:06;14.60;;;8.40;;
12986;SDS011;58897;51.960;5.582;2022-12-18T04:53:33;18.07;;;8.00;;
12986;SDS011;58897;51.960;5.582;2022-12-18T04:56:08;15.07;;;7.30;;
12986;SDS011;58897;51.960;5.582;2022-12-18T04:58:37;13.10;;;7.53;;
12986;SDS011;58897;51.960;5.582;2022-12-18T05:01:05;18.47;;;7.40;;
12986;SDS011;58897;51.960;5.582;2022-12-18T05:03:33;13.27;;;7.67;;
12986;SDS011;58897;51.960;5.582;2022-12-18T05:06:01;12.77;;;7.10;;
12986;SDS011;58897;51.960;5.582;2022-12-18T05:08:28;14.23;;;7.60;;
12986;SDS011;58897;51.960;5.582;2022-12-18T05:11:05;15.93;;;6.63;;
12986;SDS011;58897;51.960;5.582;2022-12-18T05:13:34;11.27;;;6.07;;
12986;SDS011;58897;51.960;5.582;2022-12-18T05:16:01;16.30;;;7.83;;
12986;SDS011;58897;51.960;5.582;2022-12-18T05:18:29;12.27;;;6.50;;
12986;SDS011;58897;51.960;5.582;2022-12-18T05:20:56;8.33;;;5.50;;
12986;SDS011;58897;51.960;5.582;2022-12-18T05:23:23;13.87;;;7.07;;
12986;SDS011;58897;51.960;5.582;2022-12-18T05:25:52;15.13;;;7.40;;
12986;SDS011;58897;51.960;5.582;2022-12-18T05:28:27;10.40;;;6.07;;
12986;SDS011;58897;51.960;5.582;2022-12-18T05:30:56;12.83;;;7.17;;
12986;SDS011;58897;51.960;5.582;2022-12-18T05:33:24;12.60;;;6.93;;
12986;SDS011;58897;51.960;5.582;2022-12-18T05:35:57;14.17;;;6.47;;
12986;SDS011;58897;51.960;5.582;2022-12-18T05:38:25;11.80;;;6.50;;
12986;SDS011;58897;51.960;5.582;2022-12-18T05:40:53;12.67;;;6.50;;
12986;SDS011;58897;51.960;5.582;2022-12-18T05:43:20;12.10;;;6.80;;
12986;SDS011;58897;51.960;5.582;2022-12-18T05:45:48;14.33;;;8.00;;
12986;SDS011;58897;51.960;5.582;2022-12-18T05:48:15;12.27;;;7.00;;
12986;SDS011;58897;51.960;5.582;2022-12-18T05:50:43;10.73;;;5.87;;
12986;SDS011;58897;51.960;5.582;2022-12-18T05:53:14;15.27;;;6.67;;
12986;SDS011;58897;51.960;5.582;2022-12-18T05:55:43;15.83;;;8.33;;
12986;SDS011;58897;51.960;5.582;2022-12-18T05:58:11;12.17;;;6.30;;
12986;SDS011;58897;51.960;5.582;2022-12-18T06:00:39;13.27;;;5.53;;
12986;SDS011;58897;51.960;5.582;2022-12-18T06:03:08;14.07;;;7.80;;
12986;SDS011;58897;51.960;5.582;2022-12-18T06:05:36;12.87;;;6.90;;
12986;SDS011;58897;51.960;5.582;2022-12-18T06:08:04;10.57;;;6.27;;
12986;SDS011;58897;51.960;5.582;2022-12-18T06:10:31;14.57;;;8.03;;
12986;SDS011;58897;51.960;5.582;2022-12-18T06:12:57;14.27;;;6.93;;
12986;SDS011;58897;51.960;5.582;2022-12-18T06:15:24;13.07;;;6.77;;
12986;SDS011;58897;51.960;5.582;2022-12-18T06:17:50;15.23;;;6.70;;
12986;SDS011;58897;51.960;5.582;2022-12-18T06:20:17;9.97;;;6.13;;
12986;SDS011;58897;51.960;5.582;2022-12-18T06:22:44;12.10;;;7.13;;
12986;SDS011;58897;51.960;5.582;2022-12-18T06:25:10;14.00;;;7.87;;
12986;SDS011;58897;51.960;5.582;2022-12-18T06:27:37;15.83;;;7.33;;
12986;SDS011;58897;51.960;5.582;2022-12-18T06:30:05;15.43;;;6.97;;
12986;SDS011;58897;51.960;5.582;2022-12-18T06:32:32;13.13;;;7.03;;
12986;SDS011;58897;51.960;5.582;2022-12-18T06:34:59;9.17;;;5.60;;
12986;SDS011;58897;51.960;5.582;2022-12-18T06:37:25;12.10;;;7.57;;
12986;SDS011;58897;51.960;5.582;2022-12-18T06:39:52;12.47;;;6.17;;
12986;SDS011;58897;51.960;5.582;2022-12-18T06:42:19;10.20;;;6.03;;
12986;SDS011;58897;51.960;5.582;2022-12-18T06:44:46;15.93;;;7.10;;
12986;SDS011;58897;51.960;5.582;2022-12-18T06:47:12;11.07;;;6.57;;
12986;SDS011;58897;51.960;5.582;2022-12-18T06:49:39;10.57;;;6.70;;
12986;SDS011;58897;51.960;5.582;2022-12-18T06:52:05;13.97;;;6.73;;
12986;SDS011;58897;51.960;5.582;2022-12-18T06:54:32;14.63;;;6.60;;
12986;SDS011;58897;51.960;5.582;2022-12-18T06:56:58;10.33;;;6.13;;
12986;SDS011;58897;51.960;5.582;2022-12-18T06:59:25;11.67;;;5.57;;
12986;SDS011;58897;51.960;5.582;2022-12-18T07:01:53;11.47;;;6.40;;
12986;SDS011;58897;51.960;5.582;2022-12-18T07:04:19;15.30;;;6.83;;
12986;SDS011;58897;51.960;5.582;2022-12-18T07:06:46;12.03;;;6.67;;
12986;SDS011;58897;51.960;5.582;2022-12-18T07:09:12;17.27;;;7.73;;
12986;SDS011;58897;51.960;5.582;2022-12-18T07:11:39;10.23;;;6.23;;
12986;SDS011;58897;51.960;5.582;2022-12-18T07:14:05;9.93;;;5.67;;
12986;SDS011;58897;51.960;5.582;2022-12-18T07:16:32;11.07;;;6.00;;
12986;SDS011;58897;51.960;5.582;2022-12-18T07:18:58;10.87;;;6.37;;
12986;SDS011;58897;51.960;5.582;2022-12-18T07:21:24;10.27;;;6.37;;
12986;SDS011;58897;51.960;5.582;2022-12-18T07:23:51;11.23;;;6.23;;
12986;SDS011;58897;51.960;5.582;2022-12-18T07:26:18;11.60;;;6.53;;
12986;SDS011;58897;51.960;5.582;2022-12-18T07:28:46;12.33;;;6.77;;
12986;SDS011;58897;51.960;5.582;2022-12-18T07:31:15;11.50;;;6.77;;
12986;SDS011;58897;51.960;5.582;2022-12-18T07:33:43;14.60;;;6.90;;
12986;SDS011;58897;51.960;5.582;2022-12-18T07:36:10;12.70;;;6.47;;
12986;SDS011;58897;51.960;5.582;2022-12-18T07:38:37;9.47;;;6.03;;
12986;SDS011;58897;51.960;5.582;2022-12-18T07:41:05;12.00;;;6.43;;
12986;SDS011;58897;51.960;5.582;2022-12-18T07:43:33;8.57;;;5.83;;
12986;SDS011;58897;51.960;5.582;2022-12-18T07:46:00;10.93;;;6.23;;
12986;SDS011;58897;51.960;5.582;2022-12-18T07:48:28;10.30;;;6.40;;
12986;SDS011;58897;51.960;5.582;2022-12-18T07:50:58;11.80;;;6.13;;
12986;SDS011;58897;51.960;5.582;2022-12-18T07:53:30;9.87;;;6.23;;
12986;SDS011;58897;51.960;5.582;2022-12-18T07:55:58;12.00;;;6.63;;
12986;SDS011;58897;51.960;5.582;2022-12-18T07:58:46;12.27;;;6.53;;
12986;SDS011;58897;51.960;5.582;2022-12-18T08:01:13;12.13;;;6.10;;
12986;SDS011;58897;51.960;5.582;2022-12-18T08:03:40;13.13;;;7.87;;
12986;SDS011;58897;51.960;5.582;2022-12-18T08:06:08;14.60;;;6.37;;
12986;SDS011;58897;51.960;5.582;2022-12-18T08:08:35;12.80;;;6.50;;
12986;SDS011;58897;51.960;5.582;2022-12-18T08:11:03;12.53;;;6.20;;
12986;SDS011;58897;51.960;5.582;2022-12-18T08:13:29;10.40;;;6.27;;
12986;SDS011;58897;51.960;5.582;2022-12-18T08:15:59;10.03;;;6.13;;
12986;SDS011;58897;51.960;5.582;2022-12-18T08:18:31;15.57;;;7.37;;
12986;SDS011;58897;51.960;5.582;2022-12-18T08:21:06;10.30;;;6.37;;
12986;SDS011;58897;51.960;5.582;2022-12-18T08:23:37;10.90;;;6.33;;
12986;SDS011;58897;51.960;5.582;2022-12-18T08:26:08;13.53;;;7.10;;
12986;SDS011;58897;51.960;5.582;2022-12-18T08:28:36;10.07;;;5.67;;
12986;SDS011;58897;51.960;5.582;2022-12-18T08:31:02;13.13;;;6.87;;
12986;SDS011;58897;51.960;5.582;2022-12-18T08:33:30;9.20;;;6.23;;
12986;SDS011;58897;51.960;5.582;2022-12-18T08:35:58;13.83;;;6.70;;
12986;SDS011;58897;51.960;5.582;2022-12-18T08:38:25;14.00;;;7.40;;
12986;SDS011;58897;51.960;5.582;2022-12-18T08:41:07;10.90;;;4.67;;
12986;SDS011;58897;51.960;5.582;2022-12-18T08:43:36;9.87;;;6.30;;
12986;SDS011;58897;51.960;5.582;2022-12-18T08:46:21;13.50;;;7.10;;
12986;SDS011;58897;51.960;5.582;2022-12-18T08:48:50;10.70;;;6.10;;
12986;SDS011;58897;51.960;5.582;2022-12-18T08:51:17;11.27;;;6.77;;
12986;SDS011;58897;51.960;5.582;2022-12-18T08:53:44;11.87;;;6.57;;
12986;SDS011;58897;51.960;5.582;2022-12-18T08:56:11;10.47;;;6.20;;
12986;SDS011;58897;51.960;5.582;2022-12-18T08:58:39;8.93;;;6.43;;
12986;SDS011;58897;51.960;5.582;2022-12-18T09:01:07;12.10;;;6.70;;
12986;SDS011;58897;51.960;5.582;2022-12-18T09:03:35;11.97;;;6.30;;
12986;SDS011;58897;51.960;5.582;2022-12-18T09:06:02;10.20;;;6.40;;
12986;SDS011;58897;51.960;5.582;2022-12-18T09:08:29;13.37;;;6.83;;
12986;SDS011;58897;51.960;5.582;2022-12-18T09:10:56;11.10;;;6.00;;
12986;SDS011;58897;51.960;5.582;2022-12-18T09:13:22;13.93;;;6.47;;
12986;SDS011;58897;51.960;5.582;2022-12-18T09:15:52;8.37;;;4.93;;
12986;SDS011;58897;51.960;5.582;2022-12-18T09:18:21;10.53;;;6.13;;
12986;SDS011;58897;51.960;5.582;2022-12-18T09:20:48;14.13;;;7.50;;
12986;SDS011;58897;51.960;5.582;2022-12-18T09:23:17;14.33;;;6.93;;
12986;SDS011;58897;51.960;5.582;2022-12-18T09:25:44;12.73;;;6.63;;
12986;SDS011;58897;51.960;5.582;2022-12-18T09:28:12;10.77;;;5.87;;
12986;SDS011;58897;51.960;5.582;2022-12-18T09:30:45;7.87;;;5.83;;
12986;SDS011;58897;51.960;5.582;2022-12-18T09:33:14;13.10;;;6.43;;
12986;SDS011;58897;51.960;5.582;2022-12-18T09:35:42;12.87;;;6.50;;
12986;SDS011;58897;51.960;5.582;2022-12-18T09:38:14;12.40;;;5.67;;
12986;SDS011;58897;51.960;5.582;2022-12-18T09:40:51;11.63;;;6.87;;
12986;SDS011;58897;51.960;5.582;2022-12-18T09:43:28;11.43;;;6.10;;
12986;SDS011;58897;51.960;5.582;2022-12-18T09:46:01;11.67;;;6.37;;
12986;SDS011;58897;51.960;5.582;2022-12-18T09:48:32;11.57;;;6.10;;
12986;SDS011;58897;51.960;5.582;2022-12-18T09:51:04;11.50;;;6.37;;
12986;SDS011;58897;51.960;5.582;2022-12-18T09:53:39;11.73;;;5.80;;
12986;SDS011;58897;51.960;5.582;2022-12-18T09:56:10;9.07;;;5.27;;
12986;SDS011;58897;51.960;5.582;2022-12-18T09:58:43;9.07;;;5.93;;
12986;SDS011;58897;51.960;5.582;2022-12-18T10:01:15;14.17;;;6.47;;
12986;SDS011;58897;51.960;5.582;2022-12-18T10:03:47;10.30;;;6.50;;
12986;SDS011;58897;51.960;5.582;2022-12-18T10:06:15;10.00;;;5.67;;
12986;SDS011;58897;51.960;5.582;2022-12-18T10:14:41;9.13;;;5.93;;
12986;SDS011;58897;51.960;5.582;2022-12-18T10:17:28;15.33;;;6.40;;
12986;SDS011;58897;51.960;5.582;2022-12-18T10:20:16;10.67;;;5.40;;
12986;SDS011;58897;51.960;5.582;2022-12-18T10:26:02;10.57;;;6.20;;
12986;SDS011;58897;51.960;5.582;2022-12-18T10:28:32;9.20;;;5.20;;
12986;SDS011;58897;51.960;5.582;2022-12-18T10:31:01;10.80;;;6.13;;
12986;SDS011;58897;51.960;5.582;2022-12-18T10:33:29;11.30;;;6.30;;
12986;SDS011;58897;51.960;5.582;2022-12-18T10:35:58;9.73;;;6.07;;
12986;SDS011;58897;51.960;5.582;2022-12-18T10:38:25;9.70;;;6.00;;
12986;SDS011;58897;51.960;5.582;2022-12-18T10:41:01;9.10;;;5.43;;
12986;SDS011;58897;51.960;5.582;2022-12-18T10:46:22;8.83;;;5.37;;
12986;SDS011;58897;51.960;5.582;2022-12-18T10:51:27;12.90;;;6.60;;
12986;SDS011;58897;51.960;5.582;2022-12-18T10:56:33;9.30;;;5.50;;
12986;SDS011;58897;51.960;5.582;2022-12-18T10:59:04;10.00;;;5.93;;
12986;SDS011;58897;51.960;5.582;2022-12-18T11:04:31;10.03;;;5.67;;
12986;SDS011;58897;51.960;5.582;2022-12-18T11:07:05;12.97;;;5.97;;
12986;SDS011;58897;51.960;5.582;2022-12-18T11:12:04;12.00;;;6.17;;
12986;SDS011;58897;51.960;5.582;2022-12-18T11:14:52;11.40;;;6.03;;
12986;SDS011;58897;51.960;5.582;2022-12-18T11:17:34;11.17;;;6.37;;
12986;SDS011;58897;51.960;5.582;2022-12-18T11:20:03;11.30;;;5.87;;
12986;SDS011;58897;51.960;5.582;2022-12-18T11:22:33;11.43;;;6.03;;
12986;SDS011;58897;51.960;5.582;2022-12-18T11:25:06;10.77;;;5.93;;
12986;SDS011;58897;51.960;5.582;2022-12-18T11:28:01;11.57;;;6.87;;
12986;SDS011;58897;51.960;5.582;2022-12-18T11:30:31;9.17;;;5.73;;
12986;SDS011;58897;51.960;5.582;2022-12-18T11:33:09;11.77;;;6.20;;
12986;SDS011;58897;51.960;5.582;2022-12-18T11:38:41;10.23;;;5.73;;
12986;SDS011;58897;51.960;5.582;2022-12-18T11:41:26;13.43;;;6.27;;
12986;SDS011;58897;51.960;5.582;2022-12-18T11:44:28;14.00;;;6.77;;
12986;SDS011;58897;51.960;5.582;2022-12-18T11:47:08;13.50;;;6.50;;
12986;SDS011;58897;51.960;5.582;2022-12-18T11:49:36;10.30;;;5.73;;
12986;SDS011;58897;51.960;5.582;2022-12-18T11:52:22;10.90;;;6.07;;
12986;SDS011;58897;51.960;5.582;2022-12-18T11:54:57;11.53;;;6.90;;
12986;SDS011;58897;51.960;5.582;2022-12-18T11:58:30;11.93;;;6.07;;
12986;SDS011;58897;51.960;5.582;2022-12-18T12:00:25;10.67;;;5.70;;
12986;SDS011;58897;51.960;5.582;2022-12-18T12:05:55;15.23;;;6.63;;
12986;SDS011;58897;51.960;5.582;2022-12-18T12:16:56;12.37;;;6.63;;
12986;SDS011;58897;51.960;5.582;2022-12-18T12:19:35;10.87;;;6.13;;
12986;SDS011;58897;51.960;5.582;2022-12-18T12:22:11;11.60;;;6.13;;
12986;SDS011;58897;51.960;5.582;2022-12-18T12:27:45;9.40;;;5.40;;
12986;SDS011;58897;51.960;5.582;2022-12-18T12:31:09;11.03;;;5.23;;
12986;SDS011;58897;51.960;5.582;2022-12-18T12:36:17;12.60;;;6.07;;
12986;SDS011;58897;51.960;5.582;2022-12-18T12:38:54;15.33;;;6.87;;
12986;SDS011;58897;51.960;5.582;2022-12-18T12:41:24;12.07;;;5.63;;
12986;SDS011;58897;51.960;5.582;2022-12-18T12:44:32;13.83;;;7.50;;
12986;SDS011;58897;51.960;5.582;2022-12-18T12:47:17;15.23;;;7.03;;
12986;SDS011;58897;51.960;5.582;2022-12-18T12:49:49;13.63;;;7.67;;
12986;SDS011;58897;51.960;5.582;2022-12-18T12:52:34;15.30;;;7.10;;
12986;SDS011;58897;51.960;5.582;2022-12-18T12:55:06;14.87;;;6.80;;
12986;SDS011;58897;51.960;5.582;2022-12-18T13:00:44;11.50;;;7.00;;
12986;SDS011;58897;51.960;5.582;2022-12-18T13:06:19;12.10;;;7.00;;
12986;SDS011;58897;51.960;5.582;2022-12-18T13:09:15;12.00;;;7.90;;
12986;SDS011;58897;51.960;5.582;2022-12-18T13:11:43;12.93;;;7.37;;
12986;SDS011;58897;51.960;5.582;2022-12-18T13:14:32;14.67;;;7.87;;
12986;SDS011;58897;51.960;5.582;2022-12-18T13:17:16;11.77;;;7.33;;
12986;SDS011;58897;51.960;5.582;2022-12-18T13:19:43;15.10;;;6.97;;
12986;SDS011;58897;51.960;5.582;2022-12-18T13:22:22;12.03;;;6.53;;
12986;SDS011;58897;51.960;5.582;2022-12-18T13:24:51;9.67;;;5.70;;
12986;SDS011;58897;51.960;5.582;2022-12-18T13:41:01;11.33;;;5.90;;
12986;SDS011;58897;51.960;5.582;2022-12-18T13:43:45;12.73;;;6.10;;
12986;SDS011;58897;51.960;5.582;2022-12-18T13:46:29;16.03;;;7.43;;
12986;SDS011;58897;51.960;5.582;2022-12-18T13:51:41;12.27;;;6.17;;
12986;SDS011;58897;51.960;5.582;2022-12-18T13:54:28;10.47;;;6.03;;
12986;SDS011;58897;51.960;5.582;2022-12-18T13:57:01;13.17;;;7.00;;
12986;SDS011;58897;51.960;5.582;2022-12-18T13:59:38;11.23;;;6.17;;
12986;SDS011;58897;51.960;5.582;2022-12-18T14:02:13;13.53;;;7.27;;
12986;SDS011;58897;51.960;5.582;2022-12-18T14:04:47;14.00;;;7.50;;
12986;SDS011;58897;51.960;5.582;2022-12-18T14:07:18;15.40;;;7.50;;
12986;SDS011;58897;51.960;5.582;2022-12-18T14:09:50;13.07;;;7.57;;
12986;SDS011;58897;51.960;5.582;2022-12-18T14:12:32;12.23;;;6.53;;
12986;SDS011;58897;51.960;5.582;2022-12-18T14:17:53;12.50;;;7.10;;
12986;SDS011;58897;51.960;5.582;2022-12-18T14:20:41;12.67;;;7.07;;
12986;SDS011;58897;51.960;5.582;2022-12-18T14:23:31;12.47;;;6.70;;
12986;SDS011;58897;51.960;5.582;2022-12-18T14:28:56;14.57;;;6.77;;
12986;SDS011;58897;51.960;5.582;2022-12-18T14:31:25;12.73;;;7.03;;
12986;SDS011;58897;51.960;5.582;2022-12-18T14:33:53;16.80;;;7.77;;
12986;SDS011;58897;51.960;5.582;2022-12-18T14:36:24;13.43;;;8.07;;
12986;SDS011;58897;51.960;5.582;2022-12-18T14:38:56;13.87;;;7.13;;
12986;SDS011;58897;51.960;5.582;2022-12-18T14:41:24;18.03;;;10.17;;
12986;SDS011;58897;51.960;5.582;2022-12-18T14:43:52;15.10;;;7.77;;
12986;SDS011;58897;51.960;5.582;2022-12-18T14:49:00;12.10;;;5.63;;
12986;SDS011;58897;51.960;5.582;2022-12-18T14:51:30;13.27;;;7.13;;
12986;SDS011;58897;51.960;5.582;2022-12-18T14:54:00;13.73;;;7.30;;
12986;SDS011;58897;51.960;5.582;2022-12-18T14:56:33;14.23;;;7.90;;
12986;SDS011;58897;51.960;5.582;2022-12-18T14:59:02;13.17;;;6.67;;
12986;SDS011;58897;51.960;5.582;2022-12-18T15:01:37;13.13;;;6.90;;
12986;SDS011;58897;51.960;5.582;2022-12-18T15:04:23;15.23;;;8.13;;
12986;SDS011;58897;51.960;5.582;2022-12-18T15:07:03;14.50;;;7.33;;
12986;SDS011;58897;51.960;5.582;2022-12-18T15:09:37;11.13;;;6.40;;
12986;SDS011;58897;51.960;5.582;2022-12-18T15:12:05;18.30;;;8.17;;
12986;SDS011;58897;51.960;5.582;2022-12-18T15:14:41;14.80;;;7.70;;
12986;SDS011;58897;51.960;5.582;2022-12-18T15:17:16;14.93;;;6.70;;
12986;SDS011;58897;51.960;5.582;2022-12-18T15:19:45;14.03;;;6.93;;
12986;SDS011;58897;51.960;5.582;2022-12-18T15:22:18;9.37;;;4.30;;
12986;SDS011;58897;51.960;5.582;2022-12-18T15:25:00;12.73;;;7.83;;
12986;SDS011;58897;51.960;5.582;2022-12-18T15:27:32;15.80;;;8.03;;
12986;SDS011;58897;51.960;5.582;2022-12-18T15:32:31;20.07;;;10.23;;
12986;SDS011;58897;51.960;5.582;2022-12-18T15:35:03;16.70;;;7.90;;
12986;SDS011;58897;51.960;5.582;2022-12-18T15:37:45;17.60;;;8.87;;
12986;SDS011;58897;51.960;5.582;2022-12-18T15:40:12;11.33;;;6.53;;
12986;SDS011;58897;51.960;5.582;2022-12-18T15:42:43;12.30;;;7.37;;
12986;SDS011;58897;51.960;5.582;2022-12-18T15:45:28;7.77;;;4.93;;
12986;SDS011;58897;51.960;5.582;2022-12-18T15:47:55;13.70;;;7.93;;
12986;SDS011;58897;51.960;5.582;2022-12-18T15:50:22;14.77;;;8.17;;
12986;SDS011;58897;51.960;5.582;2022-12-18T15:52:49;14.83;;;7.57;;
12986;SDS011;58897;51.960;5.582;2022-12-18T15:55:19;12.77;;;7.73;;
12986;SDS011;58897;51.960;5.582;2022-12-18T15:58:07;9.23;;;4.70;;
12986;SDS011;58897;51.960;5.582;2022-12-18T16:00:35;25.60;;;12.20;;
12986;SDS011;58897;51.960;5.582;2022-12-18T16:03:04;16.60;;;8.53;;
12986;SDS011;58897;51.960;5.582;2022-12-18T16:05:31;15.17;;;7.97;;
12986;SDS011;58897;51.960;5.582;2022-12-18T16:07:58;20.90;;;9.17;;
12986;SDS011;58897;51.960;5.582;2022-12-18T16:10:25;15.90;;;8.50;;
12986;SDS011;58897;51.960;5.582;2022-12-18T16:12:52;20.27;;;10.00;;
12986;SDS011;58897;51.960;5.582;2022-12-18T16:15:18;14.33;;;8.57;;
12986;SDS011;58897;51.960;5.582;2022-12-18T16:17:50;18.07;;;9.10;;
12986;SDS011;58897;51.960;5.582;2022-12-18T16:20:18;15.43;;;7.83;;
12986;SDS011;58897;51.960;5.582;2022-12-18T16:22:47;15.93;;;8.53;;
12986;SDS011;58897;51.960;5.582;2022-12-18T16:27:43;15.70;;;8.50;;
12986;SDS011;58897;51.960;5.582;2022-12-18T16:30:14;15.90;;;7.67;;
12986;SDS011;58897;51.960;5.582;2022-12-18T16:32:41;13.70;;;7.57;;
12986;SDS011;58897;51.960;5.582;2022-12-18T16:35:09;19.40;;;8.50;;
12986;SDS011;58897;51.960;5.582;2022-12-18T16:37:37;18.47;;;9.00;;
12986;SDS011;58897;51.960;5.582;2022-12-18T16:40:04;15.40;;;8.47;;
12986;SDS011;58897;51.960;5.582;2022-12-18T16:42:31;19.10;;;8.67;;